This is the latest recevied weather packets stored in our database for station/object WB7AAV. If no packets are shown the sender has not sent any weather packets the latest 10 day(s).
| Time | Temp. | Humidity | Pressure | Rain* | Wind** | Luminosity | Snow |
|---|---|---|---|---|---|---|---|
| 1777979505 | 3.89° C | 95% | 1012.5 hPa | 0.25 mm | - | - | - |
| 1777977704 | 4.44° C | 94% | 1012 hPa | 0 mm | - | - | - |
| 1777976504 | 6.11° C | 94% | 1011.7 hPa | 0 mm | - | - | - |
| 1777976205 | 6.11° C | 94% | 1011.3 hPa | 0 mm | - | - | - |
| 1777972604 | 6.67° C | 89% | 1011.3 hPa | 0 mm | - | - | - |
| 1777972302 | 6.67° C | 89% | 1011.3 hPa | 0 mm | - | - | - |
| 1777971708 | 6.67° C | 85% | 1011.2 hPa | 0 mm | - | - | - |
| 1777968398 | 6.67° C | 89% | 1011.7 hPa | 0.25 mm | - | - | - |
| 1777967204 | 6.67° C | 92% | 1011.9 hPa | 0.51 mm | - | - | - |
| 1777965696 | 6.67° C | 92% | 1012.2 hPa | 0.51 mm | - | - | - |
| 1777962094 | 6.67° C | 92% | 1012.8 hPa | 0 mm | - | - | - |
| 1777961491 | 6.67° C | 92% | 1012.9 hPa | 0.51 mm | - | - | - |
| 1777960287 | 6.67° C | 93% | 1012.8 hPa | 1.02 mm | - | - | - |
| 1777959687 | 6.67° C | 94% | 1012.9 hPa | 1.27 mm | - | - | - |
| 1777959085 | 6.67° C | 93% | 1012.5 hPa | 1.78 mm | - | - | - |
| 1777958785 | 6.67° C | 93% | 1012.6 hPa | 1.78 mm | - | - | - |
| 1777954584 | 7.22° C | 89% | 1013.2 hPa | 1.78 mm | - | - | - |
| 1777954285 | 7.22° C | 89% | 1013.1 hPa | 1.78 mm | - | - | - |
| 1777951892 | 8.33° C | 81% | 1012.9 hPa | 0 mm | - | - | - |
| 1777951585 | 8.33° C | 82% | 1012.9 hPa | 0.25 mm | - | - | - |
| 1777949784 | 8.33° C | 79% | 1012.3 hPa | 0 mm | - | - | - |
| 1777948284 | 8.89° C | 76% | 1011.9 hPa | 0 mm | - | - | - |
| 1777947684 | 8.89° C | 73% | 1011.5 hPa | 0.25 mm | - | - | - |
| 1777947085 | 9.44° C | 71% | 1011.5 hPa | 0.25 mm | - | - | - |
| 1777946484 | 9.44° C | 70% | 1011.8 hPa | 0.25 mm | - | - | - |
* Rain latest hour (hover to see other rain measurements)
** Current wind speed in m/s (hover to see current wind gust speed)